Time;durP1;ratioP1;P1;durP2;ratioP2;P2;SDS_P1;SDS_P2;PMS_P1;PMS_P2;Temp;Humidity;BMP_temperature;BMP_pressure;BME280_temperature;BME280_humidity;BME280_pressure;Samples;Min_cycle;Max_cycle;Signal;HPM_P1;HPM_P2
2022/09/24 00:00:26;;;;;;;6.30;4.32;;;12.40;74.60;;;;;;5088094;28;20458;-78
2022/09/24 00:02:52;;;;;;;6.07;4.10;;;12.40;74.50;;;;;;5072478;28;20104;-78
2022/09/24 00:05:17;;;;;;;5.28;3.60;;;12.40;74.60;;;;;;5074677;28;20067;-78
2022/09/24 00:07:43;;;;;;;6.18;4.13;;;12.40;74.40;;;;;;5076275;28;20025;-79
2022/09/24 00:10:09;;;;;;;7.70;4.07;;;12.40;74.30;;;;;;5058319;28;20029;-78
2022/09/24 00:12:34;;;;;;;4.68;3.70;;;12.40;74.20;;;;;;5076244;28;20021;-78
2022/09/24 00:15:00;;;;;;;9.23;4.10;;;12.40;74.30;;;;;;5076250;28;20512;-78
2022/09/24 00:17:25;;;;;;;6.68;4.20;;;12.40;74.40;;;;;;5075631;28;20029;-78
2022/09/24 00:19:51;;;;;;;6.15;4.25;;;12.40;74.50;;;;;;5076326;28;20104;-78
2022/09/24 00:22:16;;;;;;;7.70;4.25;;;12.50;74.50;;;;;;5076144;28;20025;-79
2022/09/24 00:27:26;;;;;;;5.95;4.25;;;12.40;74.70;;;;;;5076615;28;20028;-79
2022/09/24 00:29:52;;;;;;;7.00;4.55;;;12.30;75.00;;;;;;5076063;28;20024;-80
2022/09/24 00:32:17;;;;;;;6.35;4.50;;;12.30;75.70;;;;;;5075926;28;20484;-78
2022/09/24 00:34:43;;;;;;;8.43;4.68;;;12.20;75.90;;;;;;5075741;28;20511;-79
2022/09/24 00:37:09;;;;;;;9.13;4.68;;;12.20;76.20;;;;;;5075921;28;20024;-78
2022/09/24 00:39:35;;;;;;;5.85;4.43;;;12.20;76.40;;;;;;5075781;28;20031;-78
2022/09/24 00:42:01;;;;;;;7.07;4.10;;;12.20;76.50;;;;;;5057846;28;20020;-79
2022/09/24 00:44:48;;;;;;;8.05;4.22;;;12.20;76.50;;;;;;5075944;28;20040;-79
2022/09/24 00:47:29;;;;;;;7.45;4.50;;;12.20;76.50;;;;;;5076085;28;20029;-78
2022/09/24 00:50:05;;;;;;;8.65;5.20;;;12.20;76.80;;;;;;5075707;28;20050;-79
2022/09/24 00:52:31;;;;;;;7.75;4.95;;;12.10;76.80;;;;;;5075746;28;20023;-78
2022/09/24 00:54:57;;;;;;;7.22;4.28;;;12.10;77.00;;;;;;5075513;28;20027;-79
2022/09/24 00:57:24;;;;;;;8.80;4.60;;;12.10;77.20;;;;;;5057436;28;20115;-78
2022/09/24 00:59:50;;;;;;;7.53;4.30;;;12.20;77.30;;;;;;5075469;28;20023;-78
2022/09/24 01:02:15;;;;;;;7.15;4.68;;;12.20;77.50;;;;;;5075394;28;20024;-78
2022/09/24 01:04:41;;;;;;;9.07;5.10;;;12.20;77.40;;;;;;5075370;28;20029;-79
2022/09/24 01:07:06;;;;;;;6.75;4.53;;;12.20;77.40;;;;;;5075288;28;20432;-78
2022/09/24 01:09:33;;;;;;;13.70;5.63;;;12.20;77.70;;;;;;5075308;28;20498;-79
2022/09/24 01:12:17;;;;;;;7.20;4.35;;;12.20;78.00;;;;;;5075231;28;20016;-79
2022/09/24 01:15:00;;;;;;;8.20;4.50;;;12.20;78.00;;;;;;5075273;28;20028;-79
2022/09/24 01:17:51;;;;;;;7.43;4.00;;;12.20;78.10;;;;;;5074226;28;20017;-77
2022/09/24 01:20:58;;;;;;;6.22;4.15;;;12.20;78.40;;;;;;5057014;28;20028;-77
2022/09/24 01:24:01;;;;;;;10.48;4.38;;;12.30;78.40;;;;;;5075004;28;20029;-77
2022/09/24 01:26:56;;;;;;;8.38;4.63;;;12.30;78.40;;;;;;5074861;28;20020;-77
2022/09/24 01:29:46;;;;;;;7.93;4.13;;;12.30;78.40;;;;;;5075699;28;20019;-78
2022/09/24 01:32:32;;;;;;;9.77;5.00;;;12.30;78.50;;;;;;5057716;28;20027;-78
2022/09/24 01:35:17;;;;;;;5.80;3.75;;;12.30;78.60;;;;;;5075055;28;20034;-77
2022/09/24 01:37:50;;;;;;;10.13;5.30;;;12.30;78.80;;;;;;5074781;28;20041;-79
2022/09/24 01:40:19;;;;;;;11.85;5.38;;;12.30;79.00;;;;;;5074936;28;20354;-77
2022/09/24 01:42:45;;;;;;;9.75;5.82;;;12.30;79.00;;;;;;5074646;28;20099;-79
2022/09/24 01:45:12;;;;;;;9.77;5.82;;;12.30;79.10;;;;;;5074650;28;20439;-79
2022/09/24 01:47:39;;;;;;;6.38;4.47;;;12.30;79.20;;;;;;5074573;28;20048;-77
2022/09/24 01:50:11;;;;;;;7.93;4.72;;;12.30;79.20;;;;;;5074463;28;20417;-78
2022/09/24 01:52:54;;;;;;;8.27;5.10;;;12.30;79.20;;;;;;5074371;28;20024;-78
2022/09/24 01:55:25;;;;;;;7.85;4.97;;;12.20;79.20;;;;;;5075130;28;20028;-78
2022/09/24 01:58:29;;;;;;;11.38;4.82;;;12.20;79.40;;;;;;5074770;28;20032;-80
2022/09/24 02:01:03;;;;;;;7.82;4.90;;;12.20;79.60;;;;;;4992962;28;20538;-78
2022/09/24 02:03:35;;;;;;;8.60;5.00;;;12.20;79.60;;;;;;5063921;28;20397;-78
2022/09/24 02:06:09;;;;;;;11.68;6.00;;;12.20;79.60;;;;;;5075001;28;20024;-79
2022/09/24 02:08:44;;;;;;;9.60;6.07;;;12.20;78.90;;;;;;5075016;28;20021;-79
2022/09/24 02:11:21;;;;;;;9.93;6.32;;;12.20;78.60;;;;;;5074019;28;20166;-79
2022/09/24 02:13:55;;;;;;;8.68;6.63;;;12.20;77.80;;;;;;5073847;28;20033;-79
2022/09/24 02:16:28;;;;;;;8.70;6.95;;;12.20;77.60;;;;;;5074057;28;20025;-78
2022/09/24 02:18:57;;;;;;;11.55;7.28;;;12.20;77.50;;;;;;5073875;28;20028;-77
2022/09/24 02:21:24;;;;;;;10.25;6.45;;;12.20;77.60;;;;;;5073844;28;20467;-78
2022/09/24 02:23:58;;;;;;;11.90;6.15;;;12.20;77.80;;;;;;5056118;28;20037;-78
2022/09/24 02:26:24;;;;;;;8.32;5.65;;;12.30;78.20;;;;;;5073849;28;20464;-78
2022/09/24 02:28:49;;;;;;;6.18;4.80;;;12.30;78.40;;;;;;5073486;28;20032;-78
2022/09/24 02:31:17;;;;;;;6.03;4.63;;;12.30;78.80;;;;;;5073737;28;20048;-78
2022/09/24 02:36:32;;;;;;;8.57;4.28;;;12.40;79.40;;;;;;5074012;28;20032;-79
2022/09/24 02:38:58;;;;;;;6.43;3.80;;;12.50;79.70;;;;;;5073543;28;20453;-78
2022/09/24 02:41:24;;;;;;;8.75;4.00;;;12.50;79.60;;;;;;5073632;28;20033;-78
2022/09/24 02:43:51;;;;;;;6.47;3.78;;;12.60;79.70;;;;;;5073239;28;20064;-77
2022/09/24 02:46:17;;;;;;;7.43;4.70;;;12.60;79.50;;;;;;5073458;28;20477;-79
2022/09/24 02:48:43;;;;;;;8.02;4.97;;;12.70;79.20;;;;;;5073253;28;20032;-77
2022/09/24 02:51:09;;;;;;;5.55;3.97;;;12.70;79.00;;;;;;5073295;28;20027;-78
2022/09/24 02:53:35;;;;;;;6.75;4.90;;;12.70;78.80;;;;;;5055297;28;20021;-78
2022/09/24 02:56:00;;;;;;;7.72;4.82;;;12.70;78.30;;;;;;5073214;28;20033;-78
2022/09/24 02:58:27;;;;;;;8.88;4.75;;;12.80;78.20;;;;;;5073302;28;20484;-78
2022/09/24 03:00:56;;;;;;;6.80;4.20;;;12.80;78.10;;;;;;5073366;28;20028;-78
2022/09/24 03:03:22;;;;;;;5.53;4.03;;;12.70;78.40;;;;;;5073202;28;20034;-79
2022/09/24 03:05:51;;;;;;;8.70;4.55;;;12.70;78.80;;;;;;5073362;28;20031;-78
2022/09/24 03:08:18;;;;;;;6.45;4.28;;;12.80;79.00;;;;;;5073119;28;20052;-78
2022/09/24 03:10:43;;;;;;;9.23;4.55;;;12.70;79.20;;;;;;5073300;28;20031;-79
2022/09/24 03:13:10;;;;;;;8.68;4.38;;;12.80;79.50;;;;;;5073031;28;20017;-78
2022/09/24 03:15:35;;;;;;;5.82;3.72;;;12.80;79.50;;;;;;5072979;28;20381;-78
2022/09/24 03:18:01;;;;;;;7.18;3.60;;;12.80;79.80;;;;;;5073159;28;20016;-78
2022/09/24 03:20:26;;;;;;;4.85;3.55;;;12.80;79.90;;;;;;5073107;28;20033;-77
2022/09/24 03:22:52;;;;;;;7.72;4.55;;;12.80;80.10;;;;;;5054961;28;20553;-79
2022/09/24 03:25:19;;;;;;;7.72;4.07;;;12.80;80.50;;;;;;5073058;28;20021;-77
2022/09/24 03:27:44;;;;;;;5.75;3.85;;;12.80;80.20;;;;;;5073023;28;20031;-78
2022/09/24 03:32:55;;;;;;;5.47;4.03;;;12.80;80.40;;;;;;5073638;28;20499;-77
2022/09/24 03:35:20;;;;;;;8.80;5.25;;;12.80;80.70;;;;;;5073170;28;20021;-77
2022/09/24 03:37:46;;;;;;;7.78;5.55;;;12.80;81.00;;;;;;5073287;28;20381;-78
2022/09/24 03:40:12;;;;;;;10.18;5.78;;;12.70;80.70;;;;;;5057956;28;20078;-77
2022/09/24 03:42:38;;;;;;;6.95;4.60;;;12.70;81.40;;;;;;5076949;28;20028;-78
2022/09/24 03:45:04;;;;;;;6.97;4.28;;;12.70;81.30;;;;;;5076581;28;20048;-77
2022/09/24 03:47:30;;;;;;;7.68;4.30;;;12.80;81.50;;;;;;5076633;28;20051;-77
2022/09/24 03:49:56;;;;;;;9.52;5.07;;;12.80;81.80;;;;;;5076804;28;20468;-77
2022/09/24 03:52:21;;;;;;;7.97;5.10;;;12.90;82.00;;;;;;5076785;28;20017;-78
2022/09/24 03:54:47;;;;;;;6.95;5.40;;;12.80;81.50;;;;;;5076554;28;20053;-78
2022/09/24 03:57:13;;;;;;;9.02;5.57;;;12.80;81.20;;;;;;5058588;28;20031;-78
2022/09/24 03:59:40;;;;;;;9.30;5.47;;;12.80;81.10;;;;;;5076524;28;20441;-77
2022/09/24 04:02:06;;;;;;;7.93;5.70;;;12.80;80.90;;;;;;5076400;28;20493;-78
2022/09/24 04:04:32;;;;;;;8.68;5.55;;;12.70;81.00;;;;;;5076357;28;20032;-77
2022/09/24 04:06:58;;;;;;;8.93;5.45;;;12.70;81.00;;;;;;5076486;28;20066;-79
2022/09/24 04:09:24;;;;;;;7.68;6.10;;;12.70;81.20;;;;;;5076209;28;20174;-77
2022/09/24 04:11:51;;;;;;;7.35;5.35;;;12.70;81.40;;;;;;5076457;28;20025;-77
2022/09/24 04:14:17;;;;;;;10.15;5.80;;;12.70;81.50;;;;;;5076355;28;20024;-79
2022/09/24 04:16:43;;;;;;;7.40;5.75;;;12.80;81.60;;;;;;5076259;28;20017;-78
2022/09/24 04:19:08;;;;;;;7.75;5.70;;;12.70;82.20;;;;;;5076292;28;20031;-78
2022/09/24 04:21:34;;;;;;;7.85;5.70;;;12.80;82.20;;;;;;5076120;28;20031;-78
2022/09/24 04:23:59;;;;;;;11.27;6.40;;;12.70;82.30;;;;;;5076175;28;20036;-78
2022/09/24 04:26:25;;;;;;;6.32;5.05;;;12.70;82.70;;;;;;5076094;28;20021;-78
2022/09/24 04:28:50;;;;;;;8.43;5.75;;;12.70;82.90;;;;;;5076039;28;20032;-78
2022/09/24 04:31:16;;;;;;;6.97;5.72;;;12.70;83.00;;;;;;5076178;28;20016;-78
2022/09/24 04:33:41;;;;;;;9.70;5.80;;;12.70;83.30;;;;;;5075917;28;20032;-78
2022/09/24 04:36:07;;;;;;;8.65;5.68;;;12.70;83.30;;;;;;5075939;28;20021;-78
2022/09/24 04:38:33;;;;;;;6.32;5.20;;;12.70;83.50;;;;;;5075768;28;20020;-78
2022/09/24 04:41:08;;;;;;;7.32;5.28;;;12.80;83.90;;;;;;5057818;28;20074;-78
2022/09/24 04:43:35;;;;;;;7.95;5.13;;;12.70;84.70;;;;;;5075562;28;20028;-78
2022/09/24 04:46:02;;;;;;;7.72;5.05;;;12.70;85.10;;;;;;5075718;28;20051;-77
2022/09/24 04:48:28;;;;;;;7.93;5.40;;;12.80;85.10;;;;;;5075629;28;20016;-78
2022/09/24 04:50:54;;;;;;;8.85;5.35;;;12.80;85.90;;;;;;5075488;28;20483;-78
2022/09/24 04:53:20;;;;;;;7.43;4.68;;;12.80;86.40;;;;;;5057644;28;20115;-77
2022/09/24 04:55:46;;;;;;;8.68;5.40;;;12.80;86.40;;;;;;5075412;28;20012;-78
2022/09/24 04:58:12;;;;;;;10.57;5.32;;;12.80;87.20;;;;;;5075663;28;20033;-78
2022/09/24 05:00:37;;;;;;;8.60;5.22;;;12.80;86.90;;;;;;5075530;28;20070;-78
2022/09/24 05:03:03;;;;;;;9.70;5.50;;;12.90;87.20;;;;;;5074844;28;20036;-78
2022/09/24 05:05:30;;;;;;;7.72;4.80;;;12.90;87.20;;;;;;5074995;28;20028;-77
2022/09/24 05:07:57;;;;;;;6.57;4.70;;;12.90;87.20;;;;;;5074434;28;20017;-77
2022/09/24 05:10:23;;;;;;;6.55;4.20;;;12.90;87.50;;;;;;5057082;28;20025;-77
2022/09/24 05:12:49;;;;;;;8.60;5.50;;;12.90;87.80;;;;;;5075250;28;20020;-78
2022/09/24 05:15:15;;;;;;;9.55;6.38;;;12.90;88.10;;;;;;5057146;28;20020;-78
2022/09/24 05:17:40;;;;;;;8.55;5.55;;;12.90;88.30;;;;;;5074992;28;20090;-78
2022/09/24 05:20:08;;;;;;;8.25;5.47;;;12.90;88.70;;;;;;5074868;28;20021;-79
2022/09/24 05:22:35;;;;;;;9.82;5.50;;;12.80;88.80;;;;;;5074763;28;20066;-77
2022/09/24 05:25:00;;;;;;;6.85;4.95;;;12.80;88.60;;;;;;5074807;28;20032;-77
2022/09/24 05:27:26;;;;;;;6.18;5.38;;;12.90;89.00;;;;;;5056822;28;20170;-79
2022/09/24 05:29:51;;;;;;;6.47;4.55;;;12.90;89.20;;;;;;5074847;28;20056;-78
2022/09/24 05:32:18;;;;;;;8.63;5.70;;;12.90;89.20;;;;;;5074756;28;20021;-77
2022/09/24 05:34:45;;;;;;;6.85;5.13;;;12.90;89.30;;;;;;5074541;28;20029;-78
2022/09/24 05:37:12;;;;;;;6.57;5.07;;;13.00;89.20;;;;;;5074541;28;20024;-77
2022/09/24 05:39:37;;;;;;;7.85;4.60;;;13.00;89.30;;;;;;5074220;28;20044;-78
2022/09/24 05:42:03;;;;;;;7.35;4.55;;;13.00;89.60;;;;;;5074539;28;20028;-77
2022/09/24 05:44:30;;;;;;;8.05;4.80;;;13.00;89.30;;;;;;5056093;28;20051;-77
2022/09/24 05:46:56;;;;;;;7.50;4.55;;;13.00;89.20;;;;;;5074451;28;20109;-77
2022/09/24 05:49:22;;;;;;;6.60;4.65;;;13.00;89.40;;;;;;5056273;28;20375;-77
2022/09/24 05:51:51;;;;;;;8.00;4.20;;;13.00;89.50;;;;;;5074370;28;20048;-77
2022/09/24 05:54:17;;;;;;;6.85;3.80;;;13.00;89.30;;;;;;5074215;28;20020;-77
2022/09/24 05:56:43;;;;;;;5.78;3.90;;;13.10;89.40;;;;;;5074210;28;20400;-78
2022/09/24 05:59:09;;;;;;;5.20;3.90;;;13.10;89.50;;;;;;5074167;28;20020;-78
2022/09/24 06:01:35;;;;;;;9.57;4.57;;;13.10;89.40;;;;;;5073737;28;20024;-77
2022/09/24 06:04:00;;;;;;;5.88;3.95;;;13.10;89.20;;;;;;5073630;28;20028;-77
2022/09/24 06:06:26;;;;;;;5.50;3.47;;;13.10;89.30;;;;;;5073973;28;20056;-77
2022/09/24 06:08:53;;;;;;;4.70;3.67;;;13.10;89.30;;;;;;5074001;28;20173;-77
2022/09/24 06:11:21;;;;;;;6.13;3.78;;;13.20;89.30;;;;;;5073874;28;20024;-77
2022/09/24 06:13:47;;;;;;;4.97;3.28;;;13.20;89.30;;;;;;5073947;28;20468;-77
2022/09/24 06:16:13;;;;;;;5.25;3.38;;;13.20;87.40;;;;;;5076151;28;20020;-77
2022/09/24 06:18:40;;;;;;;4.47;3.65;;;13.20;87.30;;;;;;5074070;28;20484;-77
2022/09/24 06:21:09;;;;;;;4.53;3.30;;;13.30;87.20;;;;;;5074023;28;20031;-76
2022/09/24 06:23:36;;;;;;;4.65;3.17;;;13.30;87.20;;;;;;5073613;28;20029;-78
2022/09/24 06:26:02;;;;;;;4.22;3.30;;;13.30;88.10;;;;;;5073654;28;20491;-77
2022/09/24 06:28:28;;;;;;;5.03;3.25;;;13.40;87.40;;;;;;5073566;28;20029;-77
2022/09/24 06:30:54;;;;;;;6.20;4.22;;;13.40;87.30;;;;;;5073406;28;20028;-77
2022/09/24 06:33:20;;;;;;;5.07;4.00;;;13.50;87.50;;;;;;5073710;28;20021;-79
2022/09/24 06:35:46;;;;;;;5.38;4.20;;;13.50;87.40;;;;;;5073603;28;20021;-78
2022/09/24 06:38:13;;;;;;;5.25;4.30;;;13.50;87.40;;;;;;5073444;28;20033;-78
2022/09/24 06:40:40;;;;;;;8.65;5.05;;;13.60;87.40;;;;;;5073113;28;20025;-79
2022/09/24 06:43:06;;;;;;;6.28;3.72;;;13.60;87.50;;;;;;5073282;28;20444;-80
2022/09/24 06:45:32;;;;;;;3.00;2.70;;;13.60;86.90;;;;;;5073243;28;20052;-80
2022/09/24 06:47:59;;;;;;;4.50;3.05;;;13.60;85.60;;;;;;5073412;28;20048;-79
2022/09/24 06:50:27;;;;;;;4.15;2.97;;;13.60;85.00;;;;;;5075149;28;20035;-80
2022/09/24 06:52:54;;;;;;;4.05;2.92;;;13.60;85.50;;;;;;5073796;28;20107;-79
2022/09/24 06:55:19;;;;;;;5.05;3.33;;;13.70;85.70;;;;;;5072992;28;20377;-79
2022/09/24 06:57:45;;;;;;;4.43;3.40;;;13.70;85.60;;;;;;5072981;28;20025;-78
2022/09/24 07:00:12;;;;;;;9.05;4.60;;;13.80;85.50;;;;;;5072787;28;20099;-79
2022/09/24 07:02:38;;;;;;;3.97;3.40;;;13.80;85.40;;;;;;5072589;28;20020;-78
2022/09/24 07:05:04;;;;;;;5.63;2.80;;;13.80;85.40;;;;;;5054783;28;20397;-75
2022/09/24 07:07:33;;;;;;;6.50;3.78;;;13.70;85.40;;;;;;5072761;28;20024;-74
2022/09/24 07:10:01;;;;;;;6.80;3.05;;;13.80;85.30;;;;;;5072879;28;20024;-87
2022/09/24 07:12:31;;;;;;;3.83;2.65;;;13.80;85.00;;;;;;5073147;28;20441;-84
2022/09/24 07:14:57;;;;;;;6.20;3.03;;;13.70;84.20;;;;;;5072167;28;20024;-83
2022/09/24 07:17:23;;;;;;;5.57;2.75;;;13.70;84.20;;;;;;5072821;28;20016;-81
2022/09/24 07:19:50;;;;;;;8.38;3.20;;;13.70;84.90;;;;;;5072968;28;20102;-79
2022/09/24 07:22:15;;;;;;;8.50;3.53;;;13.70;84.00;;;;;;5073233;28;20021;-77
2022/09/24 07:24:41;;;;;;;9.60;2.65;;;13.80;84.80;;;;;;5072801;28;20376;-75
2022/09/24 07:27:07;;;;;;;5.65;2.38;;;13.80;84.20;;;;;;5072738;28;20381;-76
2022/09/24 07:29:33;;;;;;;4.22;2.33;;;13.90;83.40;;;;;;5072544;28;20103;-76
2022/09/24 07:31:59;;;;;;;3.65;2.30;;;14.10;82.80;;;;;;5054374;28;20148;-77
2022/09/24 07:34:24;;;;;;;7.30;2.30;;;14.40;82.00;;;;;;5072438;28;20525;-77
2022/09/24 07:36:50;;;;;;;7.35;2.42;;;14.50;81.50;;;;;;5071934;28;20492;-77
2022/09/24 07:39:15;;;;;;;4.53;2.13;;;14.60;80.80;;;;;;5072464;28;20051;-77
2022/09/24 07:41:41;;;;;;;4.03;2.03;;;14.70;80.70;;;;;;5072600;28;20032;-77
2022/09/24 07:44:09;;;;;;;3.55;1.92;;;14.70;80.50;;;;;;5072375;28;20051;-77
2022/09/24 07:46:35;;;;;;;3.08;2.20;;;14.90;79.80;;;;;;5072665;28;20024;-77
2022/09/24 07:49:01;;;;;;;2.72;1.80;;;15.00;79.10;;;;;;5072526;28;20109;-77
2022/09/24 07:51:27;;;;;;;5.18;1.83;;;15.00;76.70;;;;;;5072363;28;20017;-77
2022/09/24 07:53:57;;;;;;;2.13;1.92;;;15.00;77.80;;;;;;5072318;28;20021;-76
2022/09/24 07:56:23;;;;;;;3.53;1.83;;;15.00;78.30;;;;;;5072144;28;20061;-75
2022/09/24 07:58:52;;;;;;;3.72;2.30;;;15.00;78.30;;;;;;5072398;28;20024;-75
2022/09/24 08:01:19;;;;;;;3.72;2.45;;;15.20;78.70;;;;;;5072320;28;20031;-77
2022/09/24 08:03:45;;;;;;;4.18;2.20;;;15.20;79.00;;;;;;5072269;28;20029;-77
2022/09/24 08:06:11;;;;;;;2.65;2.05;;;15.30;78.50;;;;;;5072135;28;20028;-77
2022/09/24 08:08:37;;;;;;;2.42;2.00;;;15.30;77.90;;;;;;5072022;28;20515;-78
2022/09/24 08:11:08;;;;;;;2.80;2.08;;;15.50;77.90;;;;;;5072138;28;20420;-77
2022/09/24 08:13:34;;;;;;;5.55;2.50;;;15.50;77.70;;;;;;5072070;28;20078;-77
2022/09/24 08:16:00;;;;;;;5.32;2.35;;;15.60;77.80;;;;;;5071986;28;20025;-80
2022/09/24 08:18:30;;;;;;;2.97;2.30;;;15.60;77.90;;;;;;5072031;28;20537;-79
2022/09/24 08:20:56;;;;;;;4.70;2.25;;;15.60;78.20;;;;;;5072063;28;20492;-79
2022/09/24 08:23:22;;;;;;;5.32;2.40;;;15.40;78.10;;;;;;5071746;28;20037;-78
2022/09/24 08:25:48;;;;;;;5.63;2.78;;;15.30;79.10;;;;;;5055087;28;20154;-78
2022/09/24 08:28:15;;;;;;;5.60;3.53;;;15.30;79.20;;;;;;5074421;28;20024;-78
2022/09/24 08:30:42;;;;;;;5.45;3.33;;;15.30;79.60;;;;;;5074218;28;20380;-78
2022/09/24 08:33:09;;;;;;;4.10;2.80;;;15.40;79.70;;;;;;5074907;28;20013;-78
2022/09/24 08:35:35;;;;;;;4.93;2.97;;;15.40;79.80;;;;;;5074536;28;20020;-78
2022/09/24 08:38:02;;;;;;;4.43;2.80;;;15.30;79.80;;;;;;5075016;28;20020;-81
2022/09/24 08:40:33;;;;;;;3.67;2.47;;;15.30;80.10;;;;;;5074338;28;20033;-77
2022/09/24 08:43:12;;;;;;;3.75;2.55;;;15.30;80.40;;;;;;5076669;28;20514;-78
2022/09/24 08:48:33;;;;;;;3.85;2.70;;;15.20;80.70;;;;;;5075238;28;20081;-77
2022/09/24 08:51:04;;;;;;;4.35;2.92;;;15.20;80.80;;;;;;5056874;28;20021;-77
2022/09/24 08:53:54;;;;;;;4.20;2.90;;;15.30;81.00;;;;;;5075000;28;20027;-78
2022/09/24 08:56:24;;;;;;;4.38;2.70;;;15.30;81.20;;;;;;5075148;28;20103;-78
2022/09/24 08:59:02;;;;;;;4.93;2.47;;;15.30;82.00;;;;;;5074720;28;20376;-79
2022/09/24 09:01:40;;;;;;;4.88;2.65;;;15.30;81.00;;;;;;5075082;28;20024;-78
2022/09/24 09:04:29;;;;;;;3.42;2.30;;;15.40;81.20;;;;;;5074800;28;20043;-78
2022/09/24 09:07:00;;;;;;;3.75;3.10;;;15.40;81.30;;;;;;5068730;28;20051;-77
2022/09/24 09:09:50;;;;;;;3.33;2.75;;;15.40;81.50;;;;;;5063349;28;20461;-78
2022/09/24 09:12:25;;;;;;;8.43;3.72;;;15.40;81.50;;;;;;5061421;28;20111;-83
2022/09/24 09:15:11;;;;;;;3.80;3.20;;;15.40;81.90;;;;;;5061363;28;20025;-80
2022/09/24 09:17:58;;;;;;;4.90;3.15;;;15.50;82.00;;;;;;5062433;28;20056;-77
2022/09/24 09:20:38;;;;;;;4.75;3.35;;;15.50;82.20;;;;;;5074540;28;20112;-79
2022/09/24 09:23:25;;;;;;;4.82;3.08;;;15.40;82.30;;;;;;5056667;28;20032;-79
2022/09/24 09:25:58;;;;;;;3.70;2.72;;;15.40;82.80;;;;;;5073748;28;20040;-79
2022/09/24 09:28:27;;;;;;;5.38;3.40;;;15.30;82.00;;;;;;5073908;28;20473;-79
2022/09/24 09:30:57;;;;;;;3.95;2.65;;;15.30;82.10;;;;;;5074102;28;20024;-78
2022/09/24 09:33:32;;;;;;;5.78;2.90;;;15.30;82.30;;;;;;5074390;28;20601;-78
2022/09/24 09:36:15;;;;;;;4.45;3.30;;;15.30;82.40;;;;;;5074302;28;20096;-78
2022/09/24 09:38:44;;;;;;;4.70;3.53;;;15.30;82.40;;;;;;5064519;28;20025;-78
2022/09/24 09:41:28;;;;;;;4.93;2.60;;;15.30;82.40;;;;;;5061387;28;20036;-79
2022/09/24 09:44:00;;;;;;;4.10;3.45;;;15.30;82.40;;;;;;5044782;28;20067;-78
2022/09/24 09:46:32;;;;;;;5.07;3.05;;;15.40;82.50;;;;;;5074108;28;20054;-78
2022/09/24 09:49:05;;;;;;;4.45;3.15;;;15.50;82.70;;;;;;5073971;28;20013;-79
2022/09/24 09:51:37;;;;;;;4.53;3.33;;;15.60;83.10;;;;;;5073025;28;20499;-78
2022/09/24 09:54:04;;;;;;;3.70;2.83;;;15.60;82.70;;;;;;5073310;28;20465;-78
2022/09/24 09:56:35;;;;;;;2.97;2.60;;;15.70;82.20;;;;;;5055978;28;20023;-78
2022/09/24 09:59:11;;;;;;;4.70;2.75;;;15.70;80.20;;;;;;5055500;28;20416;-78
2022/09/24 10:01:48;;;;;;;3.97;2.28;;;15.80;79.50;;;;;;5073322;28;20445;-79
2022/09/24 10:04:39;;;;;;;2.40;1.90;;;15.90;79.10;;;;;;5073523;28;20032;-79
2022/09/24 10:07:11;;;;;;;2.72;2.05;;;16.00;78.50;;;;;;5072059;28;20036;-78
2022/09/24 10:09:39;;;;;;;2.65;1.80;;;16.10;78.60;;;;;;5071991;28;20470;-77
2022/09/24 10:12:21;;;;;;;2.80;1.90;;;16.10;77.70;;;;;;5053367;28;20041;-81
2022/09/24 10:15:20;;;;;;;4.30;2.22;;;16.30;77.00;;;;;;5053675;28;20427;-80
2022/09/24 10:17:49;;;;;;;3.25;2.30;;;16.30;77.10;;;;;;5010504;28;20079;-79
2022/09/24 10:20:26;;;;;;;1.80;1.67;;;16.40;76.10;;;;;;5053883;28;20082;-90
2022/09/24 10:23:20;;;;;;;2.40;2.00;;;16.40;75.50;;;;;;5035680;28;20021;-77
2022/09/24 10:25:53;;;;;;;3.35;1.80;;;16.40;75.30;;;;;;5052123;28;20056;-76
2022/09/24 10:31:13;;;;;;;2.05;1.65;;;16.20;74.00;;;;;;5053162;28;20032;-77
2022/09/24 10:33:43;;;;;;;2.17;1.98;;;16.30;75.10;;;;;;5053293;28;20120;-81
2022/09/24 10:36:26;;;;;;;2.55;1.90;;;16.40;74.40;;;;;;5066825;28;20457;-77
2022/09/24 10:39:07;;;;;;;2.78;1.95;;;16.50;75.50;;;;;;5073049;28;20023;-77
2022/09/24 10:41:33;;;;;;;2.13;1.75;;;16.60;74.80;;;;;;5072782;28;20024;-78
2022/09/24 10:44:05;;;;;;;2.55;1.98;;;16.70;74.50;;;;;;5070579;28;20051;-84
2022/09/24 10:46:57;;;;;;;4.85;2.28;;;16.90;74.20;;;;;;5062652;28;20494;-78
2022/09/24 10:49:26;;;;;;;2.67;1.88;;;17.10;72.80;;;;;;5064502;22;20572;-77
2022/09/24 10:51:55;;;;;;;2.85;2.08;;;17.30;72.30;;;;;;5011829;28;20058;-81
2022/09/24 10:54:33;;;;;;;5.65;3.33;;;17.40;69.10;;;;;;5015420;28;20101;-80
2022/09/24 10:57:03;;;;;;;3.88;2.55;;;17.40;68.70;;;;;;5013274;28;20022;-80
2022/09/24 10:59:50;;;;;;;4.03;2.33;;;17.60;69.00;;;;;;5013417;28;20095;-79
2022/09/24 11:02:45;;;;;;;2.80;2.05;;;17.80;69.00;;;;;;5012910;28;20051;-79
2022/09/24 11:05:16;;;;;;;4.72;2.35;;;17.90;69.50;;;;;;5013333;28;20045;-80
2022/09/24 11:07:51;;;;;;;2.20;2.00;;;18.10;69.50;;;;;;5013157;28;20036;-79
2022/09/24 11:10:40;;;;;;;7.18;2.35;;;18.20;69.10;;;;;;5012824;28;20032;-78
2022/09/24 11:13:31;;;;;;;4.45;3.38;;;18.10;67.40;;;;;;5007182;28;20041;-78
2022/09/24 11:16:31;;;;;;;3.50;1.90;;;17.90;65.30;;;;;;5012880;28;20030;-79
2022/09/24 11:19:01;;;;;;;2.03;1.80;;;17.70;65.60;;;;;;5028274;28;20026;-77
2022/09/24 11:21:48;;;;;;;2.42;2.05;;;17.60;67.40;;;;;;5028154;28;20018;-78
2022/09/24 11:24:43;;;;;;;2.15;1.85;;;17.50;67.20;;;;;;5027855;28;20111;-79
2022/09/24 11:27:25;;;;;;;1.67;1.58;;;17.60;67.60;;;;;;5012958;28;20018;-79
2022/09/24 11:30:02;;;;;;;3.63;2.13;;;17.60;67.70;;;;;;5013094;28;20053;-82
2022/09/24 11:32:36;;;;;;;2.95;2.30;;;17.60;67.00;;;;;;5012873;28;20029;-80
2022/09/24 11:35:19;;;;;;;3.13;1.70;;;17.60;65.90;;;;;;5012783;28;20022;-80
2022/09/24 11:38:13;;;;;;;4.25;2.10;;;17.50;65.60;;;;;;5012943;28;20490;-78
2022/09/24 11:40:54;;;;;;;3.40;2.08;;;17.50;67.20;;;;;;5013116;28;20026;-80
2022/09/24 11:44:03;;;;;;;2.95;2.30;;;17.30;67.20;;;;;;5027693;28;20030;-78
2022/09/24 11:47:07;;;;;;;3.83;2.47;;;17.20;67.20;;;;;;5012670;28;20148;-78
2022/09/24 11:49:56;;;;;;;2.85;2.03;;;17.10;67.80;;;;;;5012560;28;20018;-77
2022/09/24 11:52:30;;;;;;;5.35;2.10;;;17.10;66.90;;;;;;5012674;28;20034;-78
2022/09/24 11:55:21;;;;;;;2.78;2.25;;;16.90;68.80;;;;;;5012571;28;20034;-77
2022/09/24 11:58:05;;;;;;;2.83;1.73;;;16.70;68.80;;;;;;5012396;28;20397;-77
2022/09/24 12:00:39;;;;;;;3.10;2.17;;;16.60;68.60;;;;;;5013973;28;20102;-77
2022/09/24 12:03:07;;;;;;;2.28;1.80;;;16.70;69.10;;;;;;5016608;28;20030;-79
2022/09/24 12:05:48;;;;;;;2.53;1.80;;;16.70;70.00;;;;;;5016261;28;20080;-79
2022/09/24 12:08:31;;;;;;;3.67;2.05;;;16.70;70.90;;;;;;5031470;28;20018;-78
2022/09/24 12:11:06;;;;;;;3.70;1.88;;;16.60;69.60;;;;;;5016634;28;20034;-78
2022/09/24 12:13:40;;;;;;;2.95;1.90;;;16.70;69.70;;;;;;5016279;28;20033;-78
2022/09/24 12:16:25;;;;;;;2.97;2.05;;;16.70;68.30;;;;;;5016336;28;20054;-78
2022/09/24 12:18:56;;;;;;;2.65;2.20;;;16.70;68.80;;;;;;5016242;28;20026;-79
2022/09/24 12:21:29;;;;;;;1.77;1.58;;;16.90;69.20;;;;;;5016143;28;20140;-78
2022/09/24 12:24:02;;;;;;;1.60;1.38;;;17.20;67.50;;;;;;5015871;28;20040;-77
2022/09/24 12:26:29;;;;;;;3.28;1.73;;;17.40;67.80;;;;;;5015994;28;20512;-78
2022/09/24 12:32:53;;;;;;;2.90;1.70;;;17.50;65.80;;;;;;5016017;28;20092;-78
2022/09/24 12:35:46;;;;;;;2.10;1.90;;;17.40;65.50;;;;;;5015689;28;20490;-77
2022/09/24 12:38:41;;;;;;;4.38;1.65;;;17.50;66.10;;;;;;4996810;28;20038;-77
2022/09/24 12:41:22;;;;;;;2.35;1.70;;;17.70;64.70;;;;;;5010390;28;20030;-77
2022/09/24 12:44:09;;;;;;;2.92;1.98;;;18.00;63.30;;;;;;5015431;28;20026;-78
2022/09/24 12:46:52;;;;;;;3.95;2.28;;;18.50;63.00;;;;;;5015682;28;20045;-79
2022/09/24 12:49:37;;;;;;;2.75;1.67;;;18.50;63.10;;;;;;5031026;28;20032;-78
2022/09/24 12:52:16;;;;;;;3.30;1.50;;;18.40;63.40;;;;;;5015354;28;20038;-79
2022/09/24 12:54:43;;;;;;;3.05;1.85;;;18.30;61.30;;;;;;5015612;28;20501;-79
2022/09/24 12:57:28;;;;;;;1.90;1.42;;;18.10;62.00;;;;;;5015557;28;20108;-78
2022/09/24 12:59:59;;;;;;;4.00;1.85;;;17.70;62.40;;;;;;5015607;28;20096;-78
2022/09/24 13:02:26;;;;;;;1.90;1.70;;;17.50;63.80;;;;;;5030574;28;20120;-79
2022/09/24 13:05:01;;;;;;;2.13;1.60;;;17.40;63.40;;;;;;5015162;28;20045;-80
2022/09/24 13:08:03;;;;;;;1.88;1.60;;;17.30;64.00;;;;;;5030422;28;20105;-78
2022/09/24 13:10:34;;;;;;;2.15;1.95;;;17.20;65.50;;;;;;5015314;28;20022;-78
2022/09/24 13:13:01;;;;;;;2.53;1.80;;;17.20;65.00;;;;;;5014942;28;20758;-79
2022/09/24 13:15:32;;;;;;;3.40;1.75;;;17.20;66.40;;;;;;5015132;28;20216;-79
2022/09/24 13:18:10;;;;;;;1.77;1.58;;;17.10;65.00;;;;;;5030530;28;20121;-78
2022/09/24 13:20:41;;;;;;;2.78;1.70;;;17.10;64.30;;;;;;5014683;28;20033;-77
2022/09/24 13:23:17;;;;;;;2.90;1.65;;;17.00;65.40;;;;;;5014782;28;20495;-78
2022/09/24 13:25:53;;;;;;;;;;;17.10;65.60;;;;;;5015226;28;20472;-78